createdAt,value
2023-04-02T00:04:14.566Z,6.30
2023-04-02T00:08:30.937Z,6.20
2023-04-02T00:12:33.691Z,6.20
2023-04-02T00:16:36.490Z,6.10
2023-04-02T00:20:43.661Z,6.10
2023-04-02T00:24:46.605Z,6.10
2023-04-02T00:28:50.005Z,6.10
2023-04-02T00:32:53.372Z,6.00
2023-04-02T00:36:58.399Z,6.00
2023-04-02T00:41:04.897Z,6.00
2023-04-02T00:45:18.725Z,6.00
2023-04-02T00:49:33.930Z,5.90
2023-04-02T00:53:40.186Z,5.90
2023-04-02T00:57:44.958Z,5.80
2023-04-02T01:01:54.361Z,5.80
2023-04-02T01:06:03.106Z,5.80
2023-04-02T01:10:34.345Z,5.70
2023-04-02T01:14:44.846Z,5.60
2023-04-02T01:18:56.812Z,5.60
2023-04-02T01:23:05.736Z,5.60
2023-04-02T01:27:17.457Z,5.50
2023-04-02T01:31:23.409Z,5.40
2023-04-02T01:35:31.216Z,5.40
2023-04-02T01:39:46.861Z,5.40
2023-04-02T01:43:54.664Z,5.40
2023-04-02T01:47:59.654Z,5.40
2023-04-02T01:52:04.582Z,5.30
2023-04-02T01:56:09.453Z,5.30
2023-04-02T02:00:15.971Z,5.20
2023-04-02T02:04:23.504Z,5.20
2023-04-02T02:08:34.441Z,5.20
2023-04-02T02:12:37.377Z,5.20
2023-04-02T02:16:42.094Z,5.10
2023-04-02T02:20:47.479Z,5.10
2023-04-02T02:24:51.338Z,5.10
2023-04-02T02:29:00.139Z,5.10
2023-04-02T02:33:07.627Z,5.10
2023-04-02T02:37:16.979Z,5.10
2023-04-02T02:41:26.181Z,5.00
2023-04-02T02:45:38.614Z,5.00
2023-04-02T02:49:45.887Z,4.90
2023-04-02T02:53:54.708Z,4.90
2023-04-02T02:58:01.788Z,4.80
2023-04-02T03:02:09.301Z,4.80
2023-04-02T03:06:17.517Z,4.80
2023-04-02T03:10:35.334Z,4.80
2023-04-02T03:14:43.661Z,4.80
2023-04-02T03:18:53.066Z,4.70
2023-04-02T03:23:01.254Z,4.60
2023-04-02T03:27:12.481Z,4.60
2023-04-02T03:31:20.496Z,4.60
2023-04-02T03:35:28.125Z,4.50
2023-04-02T03:39:37.321Z,4.50
2023-04-02T03:43:47.674Z,4.40
2023-04-02T03:47:56.098Z,4.40
2023-04-02T03:52:04.719Z,4.40
2023-04-02T03:56:08.426Z,4.30
2023-04-02T04:00:18.632Z,4.30
2023-04-02T04:04:29.974Z,4.30
2023-04-02T04:08:42.678Z,4.30
2023-04-02T04:12:48.730Z,4.30
2023-04-02T04:17:04.670Z,4.20
2023-04-02T04:21:16.706Z,4.20
2023-04-02T04:25:25.395Z,4.20
2023-04-02T04:29:40.718Z,4.20
2023-04-02T04:33:50.517Z,4.10
2023-04-02T04:38:00.282Z,4.00
2023-04-02T04:42:06.004Z,4.00
2023-04-02T04:46:14.613Z,4.00
2023-04-02T04:50:29.450Z,3.90
2023-04-02T04:54:32.546Z,3.80
2023-04-02T04:58:41.777Z,3.80
2023-04-02T05:02:54.584Z,3.80
2023-04-02T05:07:06.134Z,3.90
2023-04-02T05:11:14.751Z,3.90
2023-04-02T05:15:22.452Z,3.80
2023-04-02T05:19:33.320Z,3.80
2023-04-02T05:23:46.038Z,3.70
2023-04-02T05:27:55.349Z,3.60
2023-04-02T05:32:03.488Z,3.60
2023-04-02T05:36:09.491Z,3.60
2023-04-02T05:40:27.431Z,3.60
2023-04-02T05:44:33.037Z,3.60
2023-04-02T05:48:40.254Z,3.60
2023-04-02T05:52:47.082Z,3.70
2023-04-02T05:56:56.556Z,3.60
2023-04-02T06:01:12.449Z,3.60
2023-04-02T06:05:19.020Z,3.60
2023-04-02T06:09:29.745Z,3.50
2023-04-02T06:13:34.070Z,3.50
2023-04-02T06:17:46.915Z,3.50
2023-04-02T06:21:52.819Z,3.50
2023-04-02T06:26:01.864Z,3.60
2023-04-02T06:30:15.051Z,3.60
2023-04-02T06:34:20.539Z,3.60
2023-04-02T06:38:33.117Z,3.60
2023-04-02T06:42:40.360Z,3.60
2023-04-02T06:46:57.411Z,3.60
2023-04-02T06:51:07.019Z,3.50
2023-04-02T06:55:30.826Z,3.50
2023-04-02T06:59:34.201Z,3.60
2023-04-02T07:03:41.833Z,3.60
2023-04-02T07:07:54.415Z,3.50
2023-04-02T07:11:57.235Z,3.60
2023-04-02T07:16:00.406Z,3.60
2023-04-02T07:20:05.414Z,3.70
2023-04-02T07:24:08.630Z,3.70
2023-04-02T07:28:11.652Z,3.70
2023-04-02T07:32:14.963Z,3.70
2023-04-02T07:36:21.235Z,3.80
2023-04-02T07:40:24.216Z,3.80
2023-04-02T07:44:27.021Z,3.80
2023-04-02T07:48:29.885Z,3.90
2023-04-02T07:52:34.026Z,4.00
2023-04-02T07:56:38.434Z,4.00
2023-04-02T08:00:41.169Z,4.00
2023-04-02T08:04:44.330Z,4.00
2023-04-02T08:08:48.758Z,4.00
2023-04-02T08:12:51.719Z,4.10
2023-04-02T08:16:56.193Z,4.20
2023-04-02T08:20:59.701Z,4.20
2023-04-02T08:25:03.883Z,4.20
2023-04-02T08:29:06.596Z,4.20
2023-04-02T08:33:09.336Z,4.30
2023-04-02T08:37:13.303Z,4.30
2023-04-02T08:41:23.217Z,4.30
2023-04-02T08:45:37.716Z,4.40
2023-04-02T08:49:45.923Z,4.40
2023-04-02T08:53:49.265Z,4.50
2023-04-02T08:57:58.634Z,4.50
2023-04-02T09:02:14.721Z,4.50
2023-04-02T09:06:19.980Z,4.60
2023-04-02T09:10:32.466Z,4.60
2023-04-02T09:14:43.011Z,4.60
2023-04-02T09:18:47.096Z,4.60
2023-04-02T09:22:51.964Z,4.60
2023-04-02T09:26:54.732Z,4.70
2023-04-02T09:31:07.490Z,4.70
2023-04-02T09:35:25.463Z,4.80
2023-04-02T09:39:29.821Z,4.80
2023-04-02T09:43:35.335Z,5.00
2023-04-02T09:47:42.286Z,5.10
2023-04-02T09:51:45.642Z,5.10
2023-04-02T09:55:48.362Z,5.20
2023-04-02T10:00:25.446Z,5.10
2023-04-02T10:04:44.245Z,5.10
2023-04-02T10:08:48.058Z,5.10
2023-04-02T10:12:57.693Z,5.00
2023-04-02T10:17:04.390Z,5.20
2023-04-02T10:21:11.466Z,5.10
2023-04-02T10:25:15.873Z,5.20
2023-04-02T10:29:42.771Z,5.20
2023-04-02T10:33:51.237Z,5.10
2023-04-02T10:38:14.515Z,5.30
2023-04-02T10:42:25.216Z,5.40
2023-04-02T10:46:33.055Z,5.60
2023-04-02T10:50:42.650Z,5.70
2023-04-02T10:54:51.142Z,5.70
2023-04-02T10:58:58.553Z,5.80
2023-04-02T11:03:07.023Z,5.90
2023-04-02T11:07:18.268Z,6.00
2023-04-02T11:11:26.312Z,6.10
2023-04-02T11:15:32.979Z,6.10
2023-04-02T11:19:37.679Z,6.20
2023-04-02T11:23:57.264Z,6.20
2023-04-02T11:28:27.346Z,6.60
2023-04-02T11:32:39.369Z,6.70
2023-04-02T11:37:02.475Z,6.90
2023-04-02T11:41:05.363Z,7.10
2023-04-02T11:45:52.647Z,7.40
2023-04-02T11:50:28.276Z,7.30
2023-04-02T11:54:38.163Z,7.20
2023-04-02T11:59:05.620Z,7.20
2023-04-02T12:03:32.465Z,7.20
2023-04-02T12:08:13.436Z,7.20
2023-04-02T12:12:26.464Z,7.30
2023-04-02T12:16:33.822Z,7.30
2023-04-02T12:20:37.095Z,7.30
2023-04-02T12:24:42.765Z,7.20
2023-04-02T12:28:46.293Z,7.10
2023-04-02T12:32:49.624Z,7.20
2023-04-02T12:36:54.570Z,7.10
2023-04-02T12:41:00.644Z,7.00
2023-04-02T12:45:07.609Z,7.20
2023-04-02T12:49:22.193Z,7.70
2023-04-02T12:53:28.348Z,7.90
2023-04-02T12:57:40.167Z,8.00
2023-04-02T13:01:57.093Z,8.00
2023-04-02T13:06:00.278Z,7.70
2023-04-02T13:10:05.771Z,7.60
2023-04-02T13:14:18.573Z,7.40
2023-04-02T13:18:22.712Z,7.40
2023-04-02T13:22:31.979Z,7.30
2023-04-02T13:26:35.561Z,7.30
2023-04-02T13:30:39.680Z,7.20
2023-04-02T13:34:42.392Z,7.20
2023-04-02T13:38:45.146Z,7.40
2023-04-02T13:42:50.575Z,7.70
2023-04-02T13:46:56.318Z,7.70
2023-04-02T13:50:59.075Z,7.80
2023-04-02T13:55:02.150Z,7.90
2023-04-02T13:59:06.062Z,8.10
2023-04-02T14:03:14.196Z,8.10
2023-04-02T14:07:47.541Z,8.00
2023-04-02T14:11:56.619Z,7.90
2023-04-02T14:16:12.794Z,7.80
2023-04-02T14:20:32.726Z,7.70
2023-04-02T14:24:44.801Z,7.70
2023-04-02T14:28:57.534Z,7.60
2023-04-02T14:33:09.190Z,7.50
2023-04-02T14:37:21.245Z,7.40
2023-04-02T14:41:28.995Z,7.50
2023-04-02T14:45:51.932Z,7.40
2023-04-02T14:49:58.013Z,7.40
2023-04-02T14:54:08.188Z,7.70
2023-04-02T14:58:17.090Z,7.80
2023-04-02T15:02:24.871Z,7.80
2023-04-02T15:06:33.189Z,7.70
2023-04-02T15:10:44.663Z,7.70
2023-04-02T15:14:51.412Z,7.70
2023-04-02T15:18:58.153Z,7.60
2023-04-02T15:23:08.640Z,7.80
2023-04-02T15:27:25.747Z,8.80
2023-04-02T15:31:29.395Z,9.30
2023-04-02T15:35:38.234Z,9.70
2023-04-02T15:39:52.571Z,9.60
2023-04-02T15:44:05.453Z,9.90
2023-04-02T15:48:25.986Z,9.90
2023-04-02T15:52:35.557Z,9.50
2023-04-02T15:56:49.776Z,9.40
2023-04-02T16:01:02.649Z,9.00
2023-04-02T16:05:15.988Z,8.80
2023-04-02T16:09:27.089Z,8.70
2023-04-02T16:13:32.522Z,8.50
2023-04-02T16:17:41.268Z,8.70
2023-04-02T16:21:50.023Z,8.50
2023-04-02T16:26:03.261Z,8.30
2023-04-02T16:30:24.749Z,8.40
2023-04-02T16:34:39.285Z,8.60
2023-04-02T16:38:54.712Z,8.80
2023-04-02T16:43:11.506Z,8.90
2023-04-02T16:47:32.021Z,9.00
2023-04-02T16:51:42.703Z,9.10
2023-04-02T16:55:55.422Z,8.90
2023-04-02T17:00:08.339Z,8.80
2023-04-02T17:04:36.328Z,8.60
2023-04-02T17:08:44.480Z,8.60
2023-04-02T17:12:48.819Z,8.40
2023-04-02T17:16:53.902Z,8.10
2023-04-02T17:21:01.513Z,8.00
2023-04-02T17:25:17.128Z,7.70
2023-04-02T17:29:27.222Z,7.60
2023-04-02T17:33:33.175Z,7.50
2023-04-02T17:37:43.785Z,7.40
2023-04-02T17:41:55.583Z,7.30
2023-04-02T17:46:06.425Z,7.20
2023-04-02T17:50:46.626Z,7.10
2023-04-02T17:54:59.524Z,7.00
2023-04-02T17:59:32.531Z,7.00
2023-04-02T18:03:51.482Z,6.90
2023-04-02T18:08:05.302Z,6.80
2023-04-02T18:12:20.564Z,6.80
2023-04-02T18:16:36.681Z,6.60
2023-04-02T18:20:44.645Z,6.60
2023-04-02T18:25:25.390Z,6.50
2023-04-02T18:29:37.163Z,6.40
2023-04-02T18:34:04.310Z,6.40
2023-04-02T18:38:22.339Z,6.30
2023-04-02T18:42:46.951Z,6.30
2023-04-02T18:46:52.915Z,6.30
2023-04-02T18:50:58.584Z,6.30
2023-04-02T18:55:07.331Z,6.30
2023-04-02T18:59:31.204Z,6.20
2023-04-02T19:03:40.543Z,6.10
2023-04-02T19:07:46.893Z,6.10
2023-04-02T19:11:53.930Z,6.00
2023-04-02T19:16:09.739Z,6.00
2023-04-02T19:20:26.827Z,5.90
2023-04-02T19:24:43.175Z,5.90
2023-04-02T19:29:01.806Z,5.80
2023-04-02T19:33:14.200Z,5.80
2023-04-02T19:37:23.907Z,5.80
2023-04-02T19:41:33.175Z,5.80
2023-04-02T19:45:39.543Z,5.90
2023-04-02T19:49:42.899Z,5.90
2023-04-02T19:53:45.706Z,5.90
2023-04-02T19:57:51.384Z,5.90
2023-04-02T20:01:55.372Z,5.90
2023-04-02T20:05:59.738Z,5.90
2023-04-02T20:10:02.633Z,5.90
2023-04-02T20:14:06.860Z,5.80
2023-04-02T20:18:10.356Z,5.70
2023-04-02T20:22:13.138Z,5.70
2023-04-02T20:26:18.155Z,5.60
2023-04-02T20:30:23.338Z,5.60
2023-04-02T20:34:26.645Z,5.50
2023-04-02T20:38:30.950Z,5.50
2023-04-02T20:42:36.127Z,5.50
2023-04-02T20:46:42.818Z,5.50
2023-04-02T20:50:46.277Z,5.50
2023-04-02T20:54:52.767Z,5.50
2023-04-02T20:58:55.750Z,5.50
2023-04-02T21:03:00.765Z,5.50
2023-04-02T21:07:04.796Z,5.40
2023-04-02T21:11:09.128Z,5.40
2023-04-02T21:15:15.649Z,5.20
2023-04-02T21:19:23.878Z,5.20
2023-04-02T21:23:27.614Z,5.20
2023-04-02T21:27:32.361Z,5.20
2023-04-02T21:31:37.722Z,5.10
2023-04-02T21:35:42.360Z,5.00
2023-04-02T21:39:45.222Z,4.90
2023-04-02T21:43:50.796Z,4.80
2023-04-02T21:47:53.516Z,4.70
2023-04-02T21:52:05.713Z,4.60
2023-04-02T21:56:11.106Z,4.50
2023-04-02T22:00:15.527Z,4.50
2023-04-02T22:04:22.488Z,4.40
2023-04-02T22:08:27.101Z,4.40
2023-04-02T22:12:35.662Z,4.30
2023-04-02T22:16:40.474Z,4.20
2023-04-02T22:20:43.244Z,4.20
2023-04-02T22:24:47.323Z,4.10
2023-04-02T22:28:52.337Z,4.00
2023-04-02T22:32:55.199Z,3.90
2023-04-02T22:36:57.978Z,3.90
2023-04-02T22:41:07.437Z,3.90
2023-04-02T22:45:10.823Z,3.90
2023-04-02T22:49:18.868Z,3.80
2023-04-02T22:53:21.822Z,3.80
2023-04-02T22:57:25.932Z,3.80
2023-04-02T23:01:31.909Z,3.70
2023-04-02T23:05:34.852Z,3.70
2023-04-02T23:09:37.671Z,3.70
2023-04-02T23:13:41.936Z,3.70
2023-04-02T23:17:44.731Z,3.60
2023-04-02T23:21:47.575Z,3.70
2023-04-02T23:25:50.430Z,3.70
2023-04-02T23:29:54.550Z,3.60
2023-04-02T23:33:57.338Z,3.60
2023-04-02T23:38:00.063Z,3.60
2023-04-02T23:42:02.927Z,3.60
2023-04-02T23:46:07.155Z,3.50
2023-04-02T23:50:11.284Z,3.40
2023-04-02T23:54:16.099Z,3.40
2023-04-02T23:58:18.871Z,3.40
